Time;durP1;ratioP1;P1;durP2;ratioP2;P2;SDS_P1;SDS_P2;PMS_P1;PMS_P2;Temp;Humidity;BMP_temperature;BMP_pressure;BME280_temperature;BME280_humidity;BME280_pressure;Samples;Min_cycle;Max_cycle;Signal;HPM_P1;HPM_P2
2023/03/31 00:01:09;;;;;;;6.93;0.90;;;;;;;;;;6220900;23;20107;-47
2023/03/31 00:03:42;;;;;;;12.23;0.95;;;;;;;;;;6216447;23;20020;-48
2023/03/31 00:06:16;;;;;;;9.15;0.93;;;;;;;;;;6215055;23;20026;-47
2023/03/31 00:08:46;;;;;;;8.57;1.10;;;;;;;;;;6221338;23;20016;-51
2023/03/31 00:11:13;;;;;;;4.70;0.53;;;;;;;;;;6217954;23;20556;-52
2023/03/31 00:13:41;;;;;;;8.38;0.95;;;;;;;;;;6216395;23;20023;-54
2023/03/31 00:16:10;;;;;;;11.30;0.90;;;;;;;;;;6218388;23;20715;-50
2023/03/31 00:18:39;;;;;;;9.55;1.42;;;;;;;;;;6220788;23;20066;-49
2023/03/31 00:21:08;;;;;;;8.10;1.77;;;;;;;;;;6212377;23;20857;-52
2023/03/31 00:23:36;;;;;;;5.97;0.93;;;;;;;;;;6217069;23;20115;-49
2023/03/31 00:26:03;;;;;;;6.82;0.70;;;;;;;;;;6215007;23;20026;-49
2023/03/31 00:28:31;;;;;;;11.02;0.90;;;;;;;;;;6220827;22;20051;-51
2023/03/31 00:31:03;;;;;;;9.32;0.88;;;;;;;;;;6217639;23;20135;-49
2023/03/31 00:33:32;;;;;;;7.10;0.50;;;;;;;;;;6217509;23;20446;-52
2023/03/31 00:36:04;;;;;;;5.63;0.70;;;;;;;;;;6222644;22;20016;-48
2023/03/31 00:38:33;;;;;;;5.88;0.65;;;;;;;;;;6214699;23;20576;-49
2023/03/31 00:41:01;;;;;;;10.80;1.00;;;;;;;;;;6218171;23;20385;-51
2023/03/31 00:43:30;;;;;;;10.90;0.93;;;;;;;;;;6223538;23;20275;-47
2023/03/31 00:46:02;;;;;;;3.50;0.38;;;;;;;;;;6213289;23;20012;-48
2023/03/31 00:48:32;;;;;;;7.70;0.53;;;;;;;;;;6223638;23;20013;-47
2023/03/31 00:51:04;;;;;;;6.00;0.38;;;;;;;;;;6221520;23;20023;-49
2023/03/31 00:53:32;;;;;;;6.22;0.35;;;;;;;;;;6215608;23;20027;-47
2023/03/31 00:56:02;;;;;;;4.97;0.50;;;;;;;;;;6226921;23;20028;-47
2023/03/31 00:58:32;;;;;;;6.25;0.47;;;;;;;;;;6217872;23;20013;-48
2023/03/31 01:01:01;;;;;;;5.50;1.07;;;;;;;;;;6218518;23;20083;-47
2023/03/31 01:03:29;;;;;;;9.32;0.57;;;;;;;;;;6218551;23;20062;-50
2023/03/31 01:05:59;;;;;;;8.05;1.15;;;;;;;;;;6225175;23;20078;-50
2023/03/31 01:08:28;;;;;;;6.65;0.50;;;;;;;;;;6214407;23;20554;-48
2023/03/31 01:10:57;;;;;;;7.35;0.93;;;;;;;;;;6216284;23;20023;-48
2023/03/31 01:13:26;;;;;;;9.03;0.70;;;;;;;;;;6208795;23;20008;-49
2023/03/31 01:15:54;;;;;;;9.80;0.82;;;;;;;;;;6217919;23;20062;-49
2023/03/31 01:18:22;;;;;;;11.27;1.08;;;;;;;;;;6216477;22;20020;-49
2023/03/31 01:20:56;;;;;;;6.80;0.75;;;;;;;;;;6219259;23;20020;-50
2023/03/31 01:23:42;;;;;;;8.73;1.25;;;;;;;;;;6216104;23;20089;-49
2023/03/31 01:26:25;;;;;;;11.53;1.10;;;;;;;;;;6217272;22;20103;-51
2023/03/31 01:28:58;;;;;;;10.95;1.13;;;;;;;;;;6218082;23;20030;-51
2023/03/31 01:31:41;;;;;;;16.42;1.27;;;;;;;;;;6217631;23;20442;-47
2023/03/31 01:34:23;;;;;;;15.85;1.13;;;;;;;;;;6221920;23;20016;-53
2023/03/31 01:37:15;;;;;;;12.45;1.20;;;;;;;;;;6212665;23;20016;-48
2023/03/31 01:39:57;;;;;;;10.77;1.27;;;;;;;;;;6216602;23;20094;-54
2023/03/31 01:42:30;;;;;;;7.60;1.20;;;;;;;;;;6220241;23;20043;-51
2023/03/31 01:45:00;;;;;;;11.48;1.20;;;;;;;;;;6219468;23;20039;-51
2023/03/31 01:47:31;;;;;;;10.55;1.23;;;;;;;;;;6220211;23;20020;-47
2023/03/31 01:50:02;;;;;;;6.70;0.82;;;;;;;;;;6207140;23;20115;-48
2023/03/31 01:52:35;;;;;;;10.50;1.10;;;;;;;;;;6220185;23;20023;-48
2023/03/31 01:55:07;;;;;;;13.60;0.93;;;;;;;;;;6212995;23;20062;-49
2023/03/31 01:57:36;;;;;;;8.05;1.33;;;;;;;;;;6222789;23;20547;-46
2023/03/31 02:00:07;;;;;;;14.18;1.42;;;;;;;;;;6214758;23;20044;-49
2023/03/31 02:02:37;;;;;;;8.07;1.05;;;;;;;;;;6223588;23;20040;-47
2023/03/31 02:05:07;;;;;;;16.40;1.83;;;;;;;;;;6215345;23;20016;-46
2023/03/31 02:07:39;;;;;;;19.63;1.50;;;;;;;;;;6223254;23;20503;-52
2023/03/31 02:10:09;;;;;;;11.95;1.50;;;;;;;;;;6220520;23;20099;-50
2023/03/31 02:12:39;;;;;;;13.55;1.73;;;;;;;;;;6216069;23;20023;-47
2023/03/31 02:15:09;;;;;;;11.68;1.65;;;;;;;;;;6227249;23;20012;-50
2023/03/31 02:17:41;;;;;;;26.03;2.47;;;;;;;;;;6218248;22;20398;-53
2023/03/31 02:20:11;;;;;;;19.55;2.22;;;;;;;;;;6216290;23;20016;-48
2023/03/31 02:22:39;;;;;;;15.80;1.63;;;;;;;;;;6223754;23;20009;-49
2023/03/31 02:25:11;;;;;;;17.60;1.92;;;;;;;;;;6213488;23;20012;-50
2023/03/31 02:27:41;;;;;;;12.75;1.73;;;;;;;;;;6219561;23;20066;-48
2023/03/31 02:30:09;;;;;;;17.07;1.73;;;;;;;;;;6218281;23;20530;-51
2023/03/31 02:32:38;;;;;;;16.33;1.17;;;;;;;;;;6220674;23;20642;-50
2023/03/31 02:35:06;;;;;;;11.43;1.23;;;;;;;;;;6216384;23;20035;-50
2023/03/31 02:37:35;;;;;;;11.38;1.45;;;;;;;;;;6220398;23;20364;-47
2023/03/31 02:40:09;;;;;;;9.68;0.82;;;;;;;;;;6219459;23;20047;-50
2023/03/31 02:42:39;;;;;;;8.50;1.43;;;;;;;;;;6217519;23;20086;-49
2023/03/31 02:45:07;;;;;;;11.80;0.85;;;;;;;;;;6223227;23;20383;-47
2023/03/31 02:47:35;;;;;;;9.98;0.60;;;;;;;;;;6219552;23;20791;-48
2023/03/31 02:50:04;;;;;;;5.03;0.70;;;;;;;;;;6217973;23;20016;-48
2023/03/31 02:52:53;;;;;;;7.45;0.65;;;;;;;;;;6219932;23;20071;-49
2023/03/31 02:55:37;;;;;;;4.87;0.60;;;;;;;;;;6206097;23;20357;-48
2023/03/31 02:58:22;;;;;;;4.47;0.40;;;;;;;;;;6200657;23;20099;-48
2023/03/31 03:01:00;;;;;;;9.20;0.68;;;;;;;;;;6218160;23;20019;-49
2023/03/31 03:03:35;;;;;;;6.72;0.50;;;;;;;;;;6215807;23;20055;-49
2023/03/31 03:06:05;;;;;;;5.60;0.47;;;;;;;;;;6218270;23;20020;-50
2023/03/31 03:08:41;;;;;;;7.57;1.00;;;;;;;;;;6220913;23;20016;-50
2023/03/31 03:11:16;;;;;;;5.55;0.40;;;;;;;;;;6210652;23;20066;-49
2023/03/31 03:13:47;;;;;;;8.00;0.50;;;;;;;;;;6209426;23;20592;-51
2023/03/31 03:16:20;;;;;;;2.28;0.45;;;;;;;;;;6217074;23;20116;-50
2023/03/31 03:18:55;;;;;;;3.08;0.47;;;;;;;;;;6201917;23;20099;-52
2023/03/31 03:21:22;;;;;;;2.97;0.40;;;;;;;;;;6219309;23;20047;-49
2023/03/31 03:23:51;;;;;;;6.35;0.50;;;;;;;;;;6217202;23;20560;-47
2023/03/31 03:26:22;;;;;;;5.13;0.30;;;;;;;;;;6217724;23;20016;-51
2023/03/31 03:28:52;;;;;;;4.90;0.40;;;;;;;;;;6222164;23;20047;-47
2023/03/31 03:31:22;;;;;;;8.40;0.47;;;;;;;;;;6219340;23;20459;-50
2023/03/31 03:33:50;;;;;;;5.57;0.57;;;;;;;;;;6221027;23;20100;-50
2023/03/31 03:36:19;;;;;;;8.23;0.82;;;;;;;;;;6217725;23;20019;-50
2023/03/31 03:38:46;;;;;;;5.13;0.47;;;;;;;;;;6218351;23;20528;-48
2023/03/31 03:41:15;;;;;;;8.00;0.77;;;;;;;;;;6217529;23;20051;-49
2023/03/31 03:43:42;;;;;;;6.60;0.43;;;;;;;;;;6217354;23;20051;-51
2023/03/31 03:46:12;;;;;;;5.00;0.50;;;;;;;;;;6214659;23;20040;-49
2023/03/31 03:48:39;;;;;;;5.20;0.70;;;;;;;;;;6219400;23;20020;-50
2023/03/31 03:51:07;;;;;;;10.40;0.93;;;;;;;;;;6214451;23;20079;-50
2023/03/31 03:53:35;;;;;;;6.05;0.70;;;;;;;;;;6214535;23;20716;-50
2023/03/31 03:56:03;;;;;;;9.38;0.60;;;;;;;;;;6223485;23;20407;-50
2023/03/31 03:58:31;;;;;;;7.40;0.90;;;;;;;;;;6204912;23;20027;-50
2023/03/31 04:00:58;;;;;;;6.80;0.50;;;;;;;;;;6220384;23;20019;-47
2023/03/31 04:03:27;;;;;;;8.80;0.75;;;;;;;;;;6220705;23;20040;-49
2023/03/31 04:05:55;;;;;;;9.45;0.70;;;;;;;;;;6219277;23;20020;-49
2023/03/31 04:08:23;;;;;;;11.15;1.20;;;;;;;;;;6220794;23;20019;-50
2023/03/31 04:10:51;;;;;;;9.37;1.30;;;;;;;;;;6220433;23;20012;-50
2023/03/31 04:13:20;;;;;;;9.60;1.20;;;;;;;;;;6219892;23;20095;-48
2023/03/31 04:15:47;;;;;;;10.13;0.95;;;;;;;;;;6213775;23;20104;-47
2023/03/31 04:18:21;;;;;;;8.23;0.82;;;;;;;;;;6221060;23;20050;-50
2023/03/31 04:21:02;;;;;;;7.25;1.05;;;;;;;;;;6219873;22;20019;-49
2023/03/31 04:23:32;;;;;;;12.80;1.30;;;;;;;;;;6218702;23;20020;-50
2023/03/31 04:26:01;;;;;;;8.18;0.85;;;;;;;;;;6216640;23;20453;-50
2023/03/31 04:28:33;;;;;;;8.65;1.05;;;;;;;;;;6223822;23;20033;-51
2023/03/31 04:31:02;;;;;;;11.88;0.65;;;;;;;;;;6221281;23;20023;-50
2023/03/31 04:33:32;;;;;;;11.98;1.17;;;;;;;;;;6221496;23;20082;-51
2023/03/31 04:36:05;;;;;;;10.57;0.80;;;;;;;;;;6219471;23;20020;-47
2023/03/31 04:38:33;;;;;;;8.68;0.95;;;;;;;;;;6219781;22;20087;-49
2023/03/31 04:41:01;;;;;;;9.45;1.02;;;;;;;;;;6210974;23;20430;-51
2023/03/31 04:43:28;;;;;;;13.00;1.08;;;;;;;;;;6223995;23;20091;-50
2023/03/31 04:45:56;;;;;;;10.40;1.33;;;;;;;;;;6213079;23;20389;-50
2023/03/31 04:48:24;;;;;;;7.13;1.17;;;;;;;;;;6221187;23;20391;-47
2023/03/31 04:50:51;;;;;;;10.65;1.15;;;;;;;;;;6221412;23;20116;-47
2023/03/31 04:53:21;;;;;;;12.73;1.20;;;;;;;;;;6217988;23;20047;-49
2023/03/31 04:55:49;;;;;;;7.93;0.90;;;;;;;;;;6219425;23;20023;-48
2023/03/31 04:58:17;;;;;;;13.13;1.50;;;;;;;;;;6222005;23;20020;-51
2023/03/31 05:00:44;;;;;;;7.07;0.70;;;;;;;;;;6215196;23;20012;-48
2023/03/31 05:03:12;;;;;;;10.07;1.38;;;;;;;;;;6222742;23;20455;-49
2023/03/31 05:05:40;;;;;;;4.40;0.60;;;;;;;;;;6218613;23;20020;-48
2023/03/31 05:08:07;;;;;;;8.38;0.88;;;;;;;;;;6223503;23;20047;-51
2023/03/31 05:10:36;;;;;;;10.90;0.95;;;;;;;;;;6216151;23;20704;-49
2023/03/31 05:13:04;;;;;;;11.73;1.20;;;;;;;;;;6222579;22;20016;-47
2023/03/31 05:15:32;;;;;;;10.52;1.08;;;;;;;;;;6216345;23;20748;-47
2023/03/31 05:18:01;;;;;;;5.78;0.80;;;;;;;;;;6222222;23;20013;-48
2023/03/31 05:20:29;;;;;;;9.30;0.98;;;;;;;;;;6216770;23;20016;-49
2023/03/31 05:22:57;;;;;;;10.70;0.70;;;;;;;;;;6220483;23;20442;-51
2023/03/31 05:25:25;;;;;;;10.60;1.43;;;;;;;;;;6218120;23;20091;-47
2023/03/31 05:27:55;;;;;;;12.90;1.30;;;;;;;;;;6221219;23;20104;-49
2023/03/31 05:30:25;;;;;;;6.13;0.60;;;;;;;;;;6220616;23;20023;-48
2023/03/31 05:32:52;;;;;;;9.73;1.13;;;;;;;;;;6211548;23;20580;-50
2023/03/31 05:35:20;;;;;;;7.57;1.00;;;;;;;;;;6222856;23;20070;-50
2023/03/31 05:37:48;;;;;;;4.43;0.60;;;;;;;;;;6217416;23;20356;-49
2023/03/31 05:40:16;;;;;;;9.57;1.10;;;;;;;;;;6222361;23;20012;-50
2023/03/31 05:42:43;;;;;;;10.50;0.73;;;;;;;;;;6215553;23;20063;-50
2023/03/31 05:45:12;;;;;;;12.05;1.55;;;;;;;;;;6223266;23;20012;-49
2023/03/31 05:47:40;;;;;;;4.80;0.60;;;;;;;;;;6218177;23;20074;-50
2023/03/31 05:50:08;;;;;;;8.30;0.80;;;;;;;;;;6218245;23;20045;-47
2023/03/31 05:52:38;;;;;;;9.88;1.00;;;;;;;;;;6218318;23;20012;-48
2023/03/31 05:55:06;;;;;;;4.10;0.77;;;;;;;;;;6221119;23;20103;-49
2023/03/31 05:57:34;;;;;;;6.65;0.77;;;;;;;;;;6215255;23;20012;-49
2023/03/31 06:00:02;;;;;;;6.15;0.95;;;;;;;;;;6218190;23;20095;-52
2023/03/31 06:02:32;;;;;;;4.90;0.57;;;;;;;;;;6218825;23;20016;-50
2023/03/31 06:05:00;;;;;;;6.15;0.50;;;;;;;;;;6222246;23;20016;-52
2023/03/31 06:07:28;;;;;;;10.00;0.52;;;;;;;;;;6215666;23;20016;-50
2023/03/31 06:09:55;;;;;;;4.30;0.63;;;;;;;;;;6218055;22;20016;-51
2023/03/31 06:12:23;;;;;;;5.35;0.88;;;;;;;;;;6213771;23;20016;-53
2023/03/31 06:14:50;;;;;;;8.97;0.73;;;;;;;;;;6221037;23;20546;-48
2023/03/31 06:17:18;;;;;;;5.30;0.80;;;;;;;;;;6210342;23;20068;-48
2023/03/31 06:19:47;;;;;;;6.75;0.50;;;;;;;;;;6216586;23;20083;-47
2023/03/31 06:22:14;;;;;;;6.75;0.52;;;;;;;;;;6219072;23;20541;-47
2023/03/31 06:24:42;;;;;;;8.68;0.57;;;;;;;;;;6223156;22;20383;-49
2023/03/31 06:27:10;;;;;;;4.60;0.67;;;;;;;;;;6216765;23;20327;-47
2023/03/31 06:29:37;;;;;;;9.65;0.57;;;;;;;;;;6218161;23;20020;-52
2023/03/31 06:32:05;;;;;;;6.50;1.25;;;;;;;;;;6218055;23;20439;-48
2023/03/31 06:34:33;;;;;;;5.13;0.52;;;;;;;;;;6217735;23;20402;-51
2023/03/31 06:37:02;;;;;;;6.05;0.73;;;;;;;;;;6219895;23;20465;-50
2023/03/31 06:39:29;;;;;;;5.77;0.50;;;;;;;;;;6218365;22;20210;-51
2023/03/31 06:41:57;;;;;;;4.60;0.65;;;;;;;;;;6219537;23;20016;-51
2023/03/31 06:44:25;;;;;;;4.93;0.40;;;;;;;;;;6218884;23;20059;-48
2023/03/31 06:46:52;;;;;;;5.07;0.47;;;;;;;;;;6218914;23;20013;-50
2023/03/31 06:49:23;;;;;;;4.72;0.30;;;;;;;;;;6223940;23;20020;-51
2023/03/31 06:51:51;;;;;;;4.83;0.40;;;;;;;;;;6221699;23;20013;-49
2023/03/31 06:54:20;;;;;;;3.20;0.35;;;;;;;;;;6219025;23;20459;-48
2023/03/31 06:56:47;;;;;;;6.72;0.70;;;;;;;;;;6221194;23;20016;-51
2023/03/31 06:59:15;;;;;;;4.43;0.57;;;;;;;;;;6218211;23;20016;-50
2023/03/31 07:01:44;;;;;;;3.92;0.98;;;;;;;;;;6223243;23;20093;-50
2023/03/31 07:04:12;;;;;;;6.93;0.50;;;;;;;;;;6219261;23;20465;-47
2023/03/31 07:06:40;;;;;;;3.30;0.50;;;;;;;;;;6218887;23;20634;-49
2023/03/31 07:09:08;;;;;;;5.07;0.43;;;;;;;;;;6221218;23;20091;-53
2023/03/31 07:11:37;;;;;;;6.82;0.60;;;;;;;;;;6214279;23;20377;-50
2023/03/31 07:14:05;;;;;;;3.00;0.30;;;;;;;;;;6221166;23;20032;-49
2023/03/31 07:16:33;;;;;;;4.10;0.30;;;;;;;;;;6216255;23;20099;-49
2023/03/31 07:19:03;;;;;;;3.97;0.40;;;;;;;;;;6215124;23;20053;-50
2023/03/31 07:21:31;;;;;;;3.97;0.50;;;;;;;;;;6224678;23;20048;-47
2023/03/31 07:23:58;;;;;;;4.57;0.50;;;;;;;;;;6212926;23;20051;-50
2023/03/31 07:26:26;;;;;;;2.45;0.52;;;;;;;;;;6218393;23;20012;-51
2023/03/31 07:28:56;;;;;;;3.67;0.30;;;;;;;;;;6222899;23;20020;-49
2023/03/31 07:31:23;;;;;;;3.03;0.20;;;;;;;;;;6217335;23;20012;-53
2023/03/31 07:33:51;;;;;;;2.67;0.30;;;;;;;;;;6217399;23;20020;-50
2023/03/31 07:36:19;;;;;;;3.42;0.30;;;;;;;;;;6215603;22;20305;-50
2023/03/31 07:38:48;;;;;;;2.78;0.20;;;;;;;;;;6218274;23;20462;-49
2023/03/31 07:41:17;;;;;;;2.00;0.20;;;;;;;;;;6218477;23;20818;-49
2023/03/31 07:43:45;;;;;;;2.28;0.30;;;;;;;;;;6218490;23;20033;-46
2023/03/31 07:46:19;;;;;;;2.30;0.30;;;;;;;;;;6218251;23;20027;-48
2023/03/31 07:48:47;;;;;;;1.38;0.20;;;;;;;;;;6220043;23;20040;-49
2023/03/31 07:51:15;;;;;;;4.00;0.30;;;;;;;;;;6218217;23;20058;-48
2023/03/31 07:53:43;;;;;;;2.03;0.20;;;;;;;;;;6221398;23;20428;-52
2023/03/31 07:56:11;;;;;;;2.13;0.30;;;;;;;;;;6219810;23;20016;-51
2023/03/31 07:58:38;;;;;;;4.82;0.40;;;;;;;;;;6224898;23;20059;-49
2023/03/31 08:01:06;;;;;;;3.13;0.30;;;;;;;;;;6213037;23;20012;-48
2023/03/31 08:03:36;;;;;;;3.20;0.55;;;;;;;;;;6222591;22;20016;-50
2023/03/31 08:06:04;;;;;;;3.17;0.60;;;;;;;;;;6219531;23;20015;-48
2023/03/31 08:08:32;;;;;;;3.33;0.70;;;;;;;;;;6219195;23;20514;-49
2023/03/31 08:11:00;;;;;;;4.00;0.70;;;;;;;;;;6222787;23;20016;-50
2023/03/31 08:13:30;;;;;;;6.60;1.05;;;;;;;;;;6216441;23;20078;-54
2023/03/31 08:15:57;;;;;;;5.30;0.80;;;;;;;;;;6051885;22;93929;-49
2023/03/31 08:18:25;;;;;;;3.67;0.70;;;;;;;;;;6110257;23;20018;-50
2023/03/31 08:20:54;;;;;;;3.42;0.90;;;;;;;;;;6107598;23;20111;-52
2023/03/31 08:23:22;;;;;;;6.80;1.25;;;;;;;;;;6132649;23;20021;-51
2023/03/31 08:25:50;;;;;;;7.80;1.02;;;;;;;;;;6128183;23;20101;-50
2023/03/31 08:28:19;;;;;;;5.53;1.58;;;;;;;;;;6131630;23;20029;-49
2023/03/31 08:30:47;;;;;;;4.33;1.20;;;;;;;;;;6130534;23;20013;-48
2023/03/31 08:33:15;;;;;;;6.95;1.13;;;;;;;;;;6134571;23;20014;-48
2023/03/31 08:35:42;;;;;;;4.57;1.00;;;;;;;;;;6127731;23;20100;-47
2023/03/31 08:38:11;;;;;;;3.85;0.90;;;;;;;;;;6134969;23;20022;-47
2023/03/31 08:40:40;;;;;;;5.95;1.10;;;;;;;;;;6127903;23;20389;-51
2023/03/31 08:43:11;;;;;;;5.00;0.73;;;;;;;;;;6131235;23;20092;-47
2023/03/31 08:45:39;;;;;;;3.80;0.88;;;;;;;;;;6124309;23;20393;-49
2023/03/31 08:48:09;;;;;;;5.70;1.10;;;;;;;;;;6124299;23;20118;-49
2023/03/31 08:50:42;;;;;;;7.30;1.15;;;;;;;;;;6124667;23;20040;-53
2023/03/31 08:53:18;;;;;;;5.22;1.15;;;;;;;;;;6124662;23;20093;-51
2023/03/31 08:55:48;;;;;;;5.20;1.10;;;;;;;;;;6128620;23;20021;-48
2023/03/31 08:58:19;;;;;;;3.25;0.70;;;;;;;;;;6123318;23;20017;-47
2023/03/31 09:00:51;;;;;;;5.30;0.73;;;;;;;;;;6121572;23;20010;-51
2023/03/31 09:03:24;;;;;;;4.05;0.75;;;;;;;;;;6096130;23;20467;-49
2023/03/31 09:05:56;;;;;;;3.60;0.70;;;;;;;;;;6114177;23;20022;-54
2023/03/31 09:08:36;;;;;;;4.00;0.80;;;;;;;;;;6114803;23;20061;-51
2023/03/31 09:11:08;;;;;;;4.35;0.77;;;;;;;;;;6109276;23;20110;-50
2023/03/31 09:13:45;;;;;;;5.05;1.27;;;;;;;;;;6115404;23;20388;-51
2023/03/31 09:16:14;;;;;;;3.15;0.82;;;;;;;;;;6109374;23;20456;-52
2023/03/31 09:18:45;;;;;;;5.13;1.00;;;;;;;;;;6116013;23;20384;-53
2023/03/31 09:21:16;;;;;;;5.43;1.17;;;;;;;;;;6112219;23;20044;-50
2023/03/31 09:23:46;;;;;;;4.72;0.60;;;;;;;;;;6106882;23;20236;-47
2023/03/31 09:26:21;;;;;;;4.70;0.88;;;;;;;;;;6114356;23;20374;-47
2023/03/31 09:28:50;;;;;;;3.13;0.50;;;;;;;;;;6116838;23;20017;-49
2023/03/31 09:31:19;;;;;;;3.30;0.57;;;;;;;;;;6111736;23;20071;-49
2023/03/31 09:33:47;;;;;;;2.97;0.50;;;;;;;;;;6106714;23;20024;-47
2023/03/31 09:36:16;;;;;;;2.15;0.40;;;;;;;;;;6116860;23;20488;-52
2023/03/31 09:38:46;;;;;;;3.22;0.30;;;;;;;;;;6110616;23;20601;-51
2023/03/31 09:41:16;;;;;;;5.95;0.35;;;;;;;;;;6119278;23;20362;-47
2023/03/31 09:43:44;;;;;;;1.75;0.20;;;;;;;;;;6107342;23;20096;-50
2023/03/31 09:46:16;;;;;;;1.73;0.23;;;;;;;;;;6119277;23;20022;-47
2023/03/31 09:48:49;;;;;;;1.92;0.47;;;;;;;;;;6116064;23;20410;-51
2023/03/31 09:51:18;;;;;;;1.85;0.30;;;;;;;;;;6110093;23;20921;-51
2023/03/31 09:53:50;;;;;;;2.75;0.20;;;;;;;;;;6106927;23;20083;-47
2023/03/31 09:56:32;;;;;;;1.38;0.20;;;;;;;;;;6110004;23;20049;-49
2023/03/31 09:59:02;;;;;;;1.60;0.30;;;;;;;;;;6112274;23;20108;-51
2023/03/31 10:01:30;;;;;;;1.67;0.30;;;;;;;;;;6112257;23;20364;-50
2023/03/31 10:03:58;;;;;;;1.92;0.30;;;;;;;;;;6108419;23;20018;-52
2023/03/31 10:06:26;;;;;;;1.60;0.30;;;;;;;;;;6115981;23;20040;-50
2023/03/31 10:08:58;;;;;;;1.10;0.20;;;;;;;;;;6117440;23;20057;-52
2023/03/31 10:11:26;;;;;;;3.37;0.40;;;;;;;;;;6116851;23;20017;-49
2023/03/31 10:13:59;;;;;;;2.15;0.30;;;;;;;;;;6102356;23;20136;-52
2023/03/31 10:16:28;;;;;;;1.58;0.22;;;;;;;;;;6116598;23;20021;-52
2023/03/31 10:19:10;;;;;;;2.40;0.30;;;;;;;;;;6112212;23;20018;-52
2023/03/31 10:21:38;;;;;;;1.85;0.30;;;;;;;;;;6119300;23;20400;-52
2023/03/31 10:24:10;;;;;;;1.57;0.30;;;;;;;;;;6106050;23;20025;-50
2023/03/31 10:26:38;;;;;;;1.67;0.30;;;;;;;;;;6112403;23;20028;-54
2023/03/31 10:29:10;;;;;;;2.10;0.20;;;;;;;;;;6113910;23;20128;-52
2023/03/31 10:31:43;;;;;;;1.80;0.30;;;;;;;;;;6115493;23;20018;-52
2023/03/31 10:34:16;;;;;;;3.53;0.30;;;;;;;;;;6115918;23;20017;-52
2023/03/31 10:36:46;;;;;;;1.70;0.20;;;;;;;;;;6109375;23;20056;-52
2023/03/31 10:39:16;;;;;;;1.67;0.22;;;;;;;;;;6120461;23;20080;-46
2023/03/31 10:41:48;;;;;;;2.42;0.35;;;;;;;;;;6107684;23;20120;-52
2023/03/31 10:44:31;;;;;;;1.42;0.20;;;;;;;;;;6114608;23;20306;-52
2023/03/31 10:47:04;;;;;;;1.83;0.30;;;;;;;;;;6117432;23;20065;-48
2023/03/31 10:49:37;;;;;;;2.20;0.30;;;;;;;;;;6113787;23;20017;-47
2023/03/31 10:52:15;;;;;;;3.08;0.30;;;;;;;;;;6105849;23;20021;-47
2023/03/31 10:54:47;;;;;;;2.55;0.88;;;;;;;;;;6111938;23;20025;-50
2023/03/31 10:57:16;;;;;;;2.72;0.57;;;;;;;;;;6113154;23;20017;-47
2023/03/31 10:59:50;;;;;;;2.05;0.35;;;;;;;;;;6117663;23;20045;-48
2023/03/31 11:02:27;;;;;;;6.23;0.50;;;;;;;;;;6102439;23;20025;-49
2023/03/31 11:04:59;;;;;;;2.08;0.30;;;;;;;;;;6113488;23;20033;-47
2023/03/31 11:07:39;;;;;;;2.83;0.70;;;;;;;;;;6111826;23;20068;-50
2023/03/31 11:10:20;;;;;;;2.22;0.43;;;;;;;;;;6110054;23;20009;-50
2023/03/31 11:12:51;;;;;;;2.08;0.47;;;;;;;;;;6107477;23;20017;-52
2023/03/31 11:15:21;;;;;;;4.03;0.87;;;;;;;;;;6113548;23;20453;-53
2023/03/31 11:17:56;;;;;;;2.20;0.30;;;;;;;;;;6114645;23;20028;-49
2023/03/31 11:20:27;;;;;;;3.72;0.40;;;;;;;;;;6117832;23;20017;-47
2023/03/31 11:23:02;;;;;;;3.13;0.60;;;;;;;;;;6108707;23;20619;-53
2023/03/31 11:25:35;;;;;;;3.50;0.70;;;;;;;;;;6107944;23;20662;-48
2023/03/31 11:28:19;;;;;;;3.77;0.70;;;;;;;;;;6117197;23;20548;-49
2023/03/31 11:30:49;;;;;;;5.05;0.82;;;;;;;;;;6111900;23;20088;-48
2023/03/31 11:33:28;;;;;;;6.85;1.13;;;;;;;;;;6105765;23;20037;-53
2023/03/31 11:36:04;;;;;;;4.88;1.13;;;;;;;;;;6108879;23;20518;-48
2023/03/31 11:38:44;;;;;;;4.00;1.25;;;;;;;;;;6126926;23;20021;-46
2023/03/31 11:41:15;;;;;;;4.27;0.80;;;;;;;;;;6128734;23;20096;-46
2023/03/31 11:43:44;;;;;;;3.58;0.60;;;;;;;;;;6123227;23;20061;-47
2023/03/31 11:46:15;;;;;;;4.63;0.70;;;;;;;;;;6123820;23;20017;-48
2023/03/31 11:48:45;;;;;;;2.92;0.50;;;;;;;;;;6127675;23;20017;-49
2023/03/31 11:51:15;;;;;;;3.88;0.73;;;;;;;;;;6125238;23;20076;-50
2023/03/31 11:53:45;;;;;;;3.37;0.50;;;;;;;;;;6133786;23;20056;-51
2023/03/31 11:56:15;;;;;;;3.75;0.82;;;;;;;;;;6125898;23;20021;-50
2023/03/31 11:58:45;;;;;;;6.00;0.90;;;;;;;;;;6132931;23;20591;-50
2023/03/31 12:01:17;;;;;;;3.47;0.85;;;;;;;;;;6131453;23;20028;-48
2023/03/31 12:03:48;;;;;;;3.70;0.95;;;;;;;;;;6124788;23;20618;-47
2023/03/31 12:06:18;;;;;;;5.33;0.90;;;;;;;;;;6130090;23;20021;-49
2023/03/31 12:08:49;;;;;;;4.30;0.82;;;;;;;;;;6124886;23;20044;-49
2023/03/31 12:11:22;;;;;;;4.07;0.90;;;;;;;;;;6128359;23;20017;-48
2023/03/31 12:13:51;;;;;;;3.78;0.65;;;;;;;;;;6125649;23;20056;-46
2023/03/31 12:16:22;;;;;;;3.92;0.75;;;;;;;;;;6129517;23;20097;-48
2023/03/31 12:18:56;;;;;;;3.07;0.57;;;;;;;;;;6130336;23;20018;-48
2023/03/31 12:21:29;;;;;;;4.47;1.20;;;;;;;;;;6131220;23;20017;-47
2023/03/31 12:23:57;;;;;;;4.88;1.27;;;;;;;;;;6117456;23;20101;-47
2023/03/31 12:26:35;;;;;;;4.40;0.98;;;;;;;;;;6126778;23;20040;-50
2023/03/31 12:29:04;;;;;;;5.60;1.60;;;;;;;;;;6128304;23;20068;-48
2023/03/31 12:31:33;;;;;;;4.17;1.03;;;;;;;;;;6129008;23;20045;-49
2023/03/31 12:34:01;;;;;;;4.63;1.10;;;;;;;;;;6116787;23;20047;-49
2023/03/31 12:36:39;;;;;;;5.55;0.85;;;;;;;;;;6128091;23;20018;-47
2023/03/31 12:39:13;;;;;;;3.33;0.50;;;;;;;;;;6124310;23;20060;-46
2023/03/31 12:41:44;;;;;;;2.33;0.50;;;;;;;;;;6124897;23;20018;-46
2023/03/31 12:44:25;;;;;;;3.80;1.00;;;;;;;;;;6125285;23;20124;-46
2023/03/31 12:47:07;;;;;;;4.25;0.70;;;;;;;;;;6123476;23;20051;-48
2023/03/31 12:49:44;;;;;;;3.72;0.68;;;;;;;;;;6111127;23;20543;-48
2023/03/31 12:52:15;;;;;;;5.80;1.00;;;;;;;;;;6129604;23;20025;-46
2023/03/31 12:55:09;;;;;;;4.38;0.60;;;;;;;;;;6124618;23;20557;-49
2023/03/31 12:57:38;;;;;;;4.33;0.60;;;;;;;;;;6128285;23;20101;-47
2023/03/31 13:00:21;;;;;;;3.45;0.63;;;;;;;;;;6112580;23;20393;-46
2023/03/31 13:02:50;;;;;;;2.67;0.50;;;;;;;;;;6123111;23;20244;-46
2023/03/31 13:05:37;;;;;;;3.75;0.88;;;;;;;;;;6127269;23;20028;-45
2023/03/31 13:08:05;;;;;;;3.63;0.40;;;;;;;;;;6119680;23;20018;-48
2023/03/31 13:10:33;;;;;;;2.47;0.37;;;;;;;;;;6124640;23;20163;-46
2023/03/31 13:13:04;;;;;;;2.83;0.40;;;;;;;;;;6120653;23;20013;-46
2023/03/31 13:15:32;;;;;;;3.75;0.68;;;;;;;;;;6129131;23;20017;-46
2023/03/31 13:18:01;;;;;;;2.40;0.20;;;;;;;;;;6129260;23;20017;-45
2023/03/31 13:20:34;;;;;;;1.70;0.20;;;;;;;;;;6125702;23;20018;-46
2023/03/31 13:23:15;;;;;;;3.70;0.57;;;;;;;;;;6130960;23;20554;-47
2023/03/31 13:25:44;;;;;;;2.05;0.30;;;;;;;;;;6129629;23;20420;-49
2023/03/31 13:28:33;;;;;;;2.28;0.30;;;;;;;;;;6132484;23;20021;-46
2023/03/31 13:31:02;;;;;;;2.35;0.40;;;;;;;;;;6133087;23;20072;-45
2023/03/31 13:33:48;;;;;;;2.28;0.38;;;;;;;;;;6127433;23;20020;-45
2023/03/31 13:36:33;;;;;;;3.87;0.47;;;;;;;;;;6129747;23;20068;-46
2023/03/31 13:39:20;;;;;;;2.97;0.30;;;;;;;;;;6132412;23;20113;-47
2023/03/31 13:41:53;;;;;;;2.30;0.40;;;;;;;;;;6127009;23;20074;-48
2023/03/31 13:44:52;;;;;;;2.45;0.35;;;;;;;;;;6122256;23;20100;-48
2023/03/31 13:47:45;;;;;;;1.30;0.30;;;;;;;;;;6005362;23;20403;-48
2023/03/31 13:50:21;;;;;;;1.40;0.30;;;;;;;;;;6124132;23;20025;-46
2023/03/31 13:52:54;;;;;;;2.15;0.30;;;;;;;;;;6135720;23;20020;-46
2023/03/31 13:55:50;;;;;;;1.60;0.20;;;;;;;;;;6126036;23;20329;-46
2023/03/31 13:58:26;;;;;;;2.35;0.30;;;;;;;;;;6128014;23;20041;-46
2023/03/31 14:01:21;;;;;;;3.75;0.40;;;;;;;;;;6129909;23;20018;-47
2023/03/31 14:03:55;;;;;;;2.50;0.60;;;;;;;;;;6124524;23;20482;-50
2023/03/31 14:06:25;;;;;;;3.08;0.60;;;;;;;;;;6125690;23;20069;-48
2023/03/31 14:08:55;;;;;;;2.90;0.70;;;;;;;;;;6128459;23;20013;-50
2023/03/31 14:11:23;;;;;;;3.30;0.63;;;;;;;;;;6123006;23;20463;-47
2023/03/31 14:14:02;;;;;;;2.42;0.40;;;;;;;;;;6132137;23;20492;-51
2023/03/31 14:16:32;;;;;;;1.80;0.40;;;;;;;;;;6124906;23;20534;-46
2023/03/31 14:19:06;;;;;;;2.63;0.52;;;;;;;;;;6119468;23;20028;-50
2023/03/31 14:21:37;;;;;;;3.03;0.50;;;;;;;;;;6134208;23;20168;-48
2023/03/31 14:24:10;;;;;;;3.00;0.50;;;;;;;;;;6124395;23;20024;-48
2023/03/31 14:26:46;;;;;;;3.28;0.70;;;;;;;;;;6124127;23;20109;-47
2023/03/31 14:29:19;;;;;;;3.60;0.73;;;;;;;;;;6132996;23;20013;-45
2023/03/31 14:31:52;;;;;;;4.72;0.88;;;;;;;;;;6127495;23;20401;-49
2023/03/31 14:34:34;;;;;;;3.72;0.70;;;;;;;;;;6129622;23;20014;-46
2023/03/31 14:37:02;;;;;;;3.17;0.50;;;;;;;;;;6129029;23;20388;-46
2023/03/31 14:39:31;;;;;;;2.33;0.50;;;;;;;;;;6129158;23;20025;-48
2023/03/31 14:42:00;;;;;;;3.90;0.40;;;;;;;;;;6124719;23;20056;-52
2023/03/31 14:44:28;;;;;;;2.75;0.60;;;;;;;;;;6132804;23;20024;-48
2023/03/31 14:46:57;;;;;;;3.75;0.60;;;;;;;;;;6125440;23;20029;-47
2023/03/31 14:49:28;;;;;;;5.07;0.70;;;;;;;;;;6110056;23;20076;-46
2023/03/31 14:52:00;;;;;;;3.90;0.70;;;;;;;;;;6115404;23;20512;-46
2023/03/31 14:54:36;;;;;;;2.70;0.50;;;;;;;;;;6102631;23;20476;-47
2023/03/31 14:57:04;;;;;;;5.78;0.65;;;;;;;;;;6121171;23;20025;-48
2023/03/31 14:59:33;;;;;;;5.88;1.08;;;;;;;;;;6110938;23;20456;-46
2023/03/31 15:02:02;;;;;;;3.22;0.60;;;;;;;;;;6109610;23;20064;-47
2023/03/31 15:04:30;;;;;;;4.00;0.80;;;;;;;;;;6108969;23;20017;-45